createdAt,value
2023-05-06T00:03:17.324Z,11.00
2023-05-06T00:08:19.167Z,10.77
2023-05-06T00:13:23.126Z,11.63
2023-05-06T00:18:24.900Z,11.13
2023-05-06T00:23:26.706Z,12.25
2023-05-06T00:28:33.221Z,10.63
2023-05-06T00:33:37.213Z,10.52
2023-05-06T00:38:43.750Z,11.15
2023-05-06T00:43:45.650Z,11.10
2023-05-06T00:48:49.866Z,11.73
2023-05-06T00:53:51.696Z,10.75
2023-05-06T00:58:54.441Z,10.38
2023-05-06T01:03:58.661Z,11.70
2023-05-06T01:09:20.976Z,11.73
2023-05-06T01:14:39.216Z,11.80
2023-05-06T01:19:53.525Z,12.23
2023-05-06T01:24:55.359Z,12.30
2023-05-06T01:29:58.184Z,12.48
2023-05-06T01:35:15.926Z,12.15
2023-05-06T01:40:18.056Z,12.60
2023-05-06T01:45:23.281Z,11.70
2023-05-06T01:50:25.992Z,10.60
2023-05-06T01:55:32.208Z,11.50
2023-05-06T02:00:38.203Z,11.82
2023-05-06T02:05:42.671Z,11.80
2023-05-06T02:10:48.054Z,11.15
2023-05-06T02:15:56.900Z,13.02
2023-05-06T02:21:03.835Z,12.85
2023-05-06T02:26:08.492Z,12.45
2023-05-06T02:31:14.464Z,12.47
2023-05-06T02:36:18.326Z,12.35
2023-05-06T02:41:22.363Z,13.15
2023-05-06T02:46:26.587Z,13.35
2023-05-06T02:51:32.862Z,13.30
2023-05-06T02:56:40.187Z,13.57
2023-05-06T03:01:45.339Z,13.57
2023-05-06T03:06:47.034Z,13.48
2023-05-06T03:11:49.202Z,14.73
2023-05-06T03:16:51.863Z,13.85
2023-05-06T03:21:58.718Z,12.85
2023-05-06T03:27:01.735Z,13.90
2023-05-06T03:32:04.335Z,13.23
2023-05-06T03:37:10.451Z,13.65
2023-05-06T03:42:17.325Z,13.93
2023-05-06T03:47:20.726Z,14.15
2023-05-06T03:52:22.907Z,14.88
2023-05-06T03:57:29.775Z,13.65
2023-05-06T04:02:36.895Z,17.83
2023-05-06T04:07:41.365Z,13.88
2023-05-06T04:12:43.280Z,16.02
2023-05-06T04:17:47.667Z,15.70
2023-05-06T04:22:52.204Z,17.60
2023-05-06T04:27:55.799Z,15.80
2023-05-06T04:33:04.134Z,14.90
2023-05-06T04:38:09.266Z,16.40
2023-05-06T04:43:13.326Z,14.20
2023-05-06T04:48:19.275Z,16.77
2023-05-06T04:53:21.520Z,17.80
2023-05-06T04:58:25.762Z,20.38
2023-05-06T05:03:28.247Z,20.17
2023-05-06T05:08:36.607Z,19.65
2023-05-06T05:13:44.520Z,15.95
2023-05-06T05:18:46.342Z,15.27
2023-05-06T05:23:55.311Z,13.38
2023-05-06T05:28:57.282Z,14.00
2023-05-06T05:34:01.969Z,14.18
2023-05-06T05:39:06.466Z,14.65
2023-05-06T05:44:16.337Z,14.68
2023-05-06T05:49:20.682Z,15.20
2023-05-06T05:54:25.948Z,14.40
2023-05-06T05:59:31.698Z,15.57
2023-05-06T06:04:39.319Z,16.80
2023-05-06T06:09:41.807Z,18.95
2023-05-06T06:14:47.993Z,16.17
2023-05-06T06:19:57.298Z,14.27
2023-05-06T06:24:59.340Z,15.93
2023-05-06T06:30:01.126Z,16.02
2023-05-06T06:35:03.558Z,14.30
2023-05-06T06:40:08.351Z,15.70
2023-05-06T06:45:11.021Z,14.55
2023-05-06T06:50:13.021Z,15.50
2023-05-06T06:55:16.925Z,14.27
2023-05-06T07:00:18.812Z,13.55
2023-05-06T07:05:23.048Z,13.35
2023-05-06T07:10:24.924Z,11.73
2023-05-06T07:15:31.672Z,11.88
2023-05-06T07:20:33.400Z,11.35
2023-05-06T07:25:37.574Z,12.70
2023-05-06T07:30:41.851Z,12.23
2023-05-06T07:35:48.600Z,13.20
2023-05-06T07:40:51.543Z,13.07
2023-05-06T07:45:58.904Z,14.93
2023-05-06T07:51:00.962Z,14.45
2023-05-06T07:56:03.924Z,13.45
2023-05-06T08:01:06.225Z,12.90
2023-05-06T08:06:08.523Z,13.40
2023-05-06T08:11:12.574Z,14.45
2023-05-06T08:16:14.406Z,13.93
2023-05-06T08:21:17.989Z,14.75
2023-05-06T08:26:22.186Z,17.17
2023-05-06T08:31:28.951Z,14.93
2023-05-06T08:36:35.271Z,14.52
2023-05-06T08:41:40.463Z,14.25
2023-05-06T08:46:46.343Z,18.65
2023-05-06T08:51:50.719Z,15.65
2023-05-06T08:56:53.383Z,13.18
2023-05-06T09:01:55.241Z,12.45
2023-05-06T09:07:02.919Z,10.20
2023-05-06T09:12:12.281Z,11.60
2023-05-06T09:17:24.106Z,10.77
2023-05-06T09:22:30.987Z,9.65
2023-05-06T09:27:42.186Z,11.05
2023-05-06T09:32:44.168Z,10.73
2023-05-06T09:37:45.956Z,10.35
2023-05-06T09:42:47.845Z,10.15
2023-05-06T09:47:53.813Z,10.05
2023-05-06T09:52:56.519Z,9.35
2023-05-06T09:58:00.505Z,8.63
2023-05-06T10:03:05.880Z,9.55
2023-05-06T10:08:08.633Z,8.48
2023-05-06T10:13:10.644Z,9.30
2023-05-06T10:18:13.608Z,9.18
2023-05-06T10:23:32.534Z,8.82
2023-05-06T10:28:39.969Z,8.70
2023-05-06T10:33:45.322Z,8.77
2023-05-06T10:38:54.760Z,9.00
2023-05-06T10:43:57.350Z,9.50
2023-05-06T10:49:13.913Z,9.40
2023-05-06T10:54:21.424Z,9.88
2023-05-06T10:59:28.580Z,10.77
2023-05-06T11:04:31.405Z,10.57
2023-05-06T11:09:33.181Z,10.65
2023-05-06T11:14:38.802Z,10.70
2023-05-06T11:19:40.590Z,10.55
2023-05-06T11:24:44.646Z,10.75
2023-05-06T11:29:46.475Z,10.80
2023-05-06T11:34:48.217Z,11.43
2023-05-06T11:39:52.213Z,10.45
2023-05-06T11:44:56.716Z,10.98
2023-05-06T11:49:59.131Z,10.05
2023-05-06T11:55:00.920Z,10.82
2023-05-06T12:00:04.894Z,10.43
2023-05-06T12:05:13.797Z,10.57
2023-05-06T12:10:17.230Z,10.68
2023-05-06T12:15:19.360Z,9.93
2023-05-06T12:20:21.510Z,9.35
2023-05-06T12:25:23.358Z,9.85
2023-05-06T12:30:32.270Z,10.50
2023-05-06T12:35:34.098Z,9.07
2023-05-06T12:40:38.427Z,10.15
2023-05-06T12:45:42.542Z,9.50
2023-05-06T12:50:45.252Z,9.23
2023-05-06T12:55:46.933Z,8.30
2023-05-06T13:00:48.985Z,8.18
2023-05-06T13:05:53.047Z,7.75
2023-05-06T13:10:54.784Z,7.05
2023-05-06T13:15:58.834Z,6.57
2023-05-06T13:21:00.837Z,6.60
2023-05-06T13:26:06.079Z,6.68
2023-05-06T13:31:13.282Z,6.95
2023-05-06T13:36:17.698Z,6.70
2023-05-06T13:41:19.777Z,6.40
2023-05-06T13:46:23.843Z,6.72
2023-05-06T13:51:30.579Z,7.00
2023-05-06T13:56:32.543Z,6.63
2023-05-06T14:01:34.355Z,7.20
2023-05-06T14:06:36.191Z,6.45
2023-05-06T14:11:42.595Z,6.80
2023-05-06T14:16:46.871Z,7.05
2023-05-06T14:21:48.657Z,6.60
2023-05-06T14:26:50.471Z,8.38
2023-05-06T14:31:54.318Z,10.90
2023-05-06T14:36:56.092Z,14.25
2023-05-06T14:41:58.135Z,8.15
2023-05-06T14:47:02.439Z,8.43
2023-05-06T14:52:04.250Z,8.80
2023-05-06T14:57:06.225Z,10.07
2023-05-06T15:02:11.216Z,8.93
2023-05-06T15:07:13.211Z,7.70
2023-05-06T15:12:17.497Z,8.73
2023-05-06T15:17:19.249Z,8.95
2023-05-06T15:22:23.516Z,7.63
2023-05-06T15:27:27.614Z,8.10
2023-05-06T15:32:29.364Z,8.63
2023-05-06T15:37:35.996Z,8.38
2023-05-06T15:42:38.377Z,8.07
2023-05-06T15:47:40.103Z,8.70
2023-05-06T15:52:45.078Z,8.35
2023-05-06T15:57:46.798Z,8.25
2023-05-06T16:02:50.760Z,9.00
2023-05-06T16:07:55.828Z,8.43
2023-05-06T16:12:57.627Z,8.43
2023-05-06T16:17:59.442Z,8.77
2023-05-06T16:23:03.568Z,8.82
2023-05-06T16:28:08.986Z,8.63
2023-05-06T16:33:12.035Z,8.98
2023-05-06T16:38:13.756Z,10.55
2023-05-06T16:43:15.537Z,10.18
2023-05-06T16:48:17.499Z,10.75
2023-05-06T16:53:19.424Z,10.15
2023-05-06T16:58:21.343Z,13.95
2023-05-06T17:03:23.132Z,11.48
2023-05-06T17:08:26.858Z,11.70
2023-05-06T17:13:31.099Z,12.48
2023-05-06T17:18:33.002Z,12.48
2023-05-06T17:23:37.029Z,14.70
2023-05-06T17:28:38.864Z,15.90
2023-05-06T17:33:40.808Z,15.18
2023-05-06T17:38:43.264Z,15.70
2023-05-06T17:43:47.467Z,14.65
2023-05-06T17:48:49.332Z,16.38
2023-05-06T17:53:51.625Z,16.15
2023-05-06T17:58:56.586Z,17.02
2023-05-06T18:03:58.792Z,18.60
2023-05-06T18:09:03.185Z,17.25
2023-05-06T18:14:05.626Z,16.73
2023-05-06T18:19:07.413Z,15.90
2023-05-06T18:24:15.824Z,16.38
2023-05-06T18:29:22.918Z,16.65
2023-05-06T18:34:26.717Z,16.17
2023-05-06T18:39:28.466Z,16.38
2023-05-06T18:44:32.482Z,14.82
2023-05-06T18:49:36.822Z,14.75
2023-05-06T18:54:39.600Z,14.93
2023-05-06T18:59:41.698Z,14.75
2023-05-06T19:04:43.810Z,15.68
2023-05-06T19:09:45.913Z,15.82
2023-05-06T19:14:50.046Z,15.57
2023-05-06T19:19:51.880Z,13.50
2023-05-06T19:24:55.878Z,13.40
2023-05-06T19:29:59.781Z,15.63
2023-05-06T19:35:08.120Z,16.75
2023-05-06T19:40:13.041Z,18.33
2023-05-06T19:45:18.940Z,19.70
2023-05-06T19:50:23.522Z,20.40
2023-05-06T19:55:27.621Z,19.23
2023-05-06T20:00:30.366Z,20.40
2023-05-06T20:05:32.332Z,18.25
2023-05-06T20:10:37.118Z,15.50
2023-05-06T20:15:38.995Z,14.40
2023-05-06T20:20:40.976Z,13.38
2023-05-06T20:25:42.790Z,12.23
2023-05-06T20:30:44.646Z,12.40
2023-05-06T20:35:48.075Z,12.65
2023-05-06T20:40:50.013Z,12.88
2023-05-06T20:45:51.781Z,12.15
2023-05-06T20:50:54.217Z,13.07
2023-05-06T20:55:55.984Z,11.98
2023-05-06T21:00:57.756Z,13.05
2023-05-06T21:05:59.492Z,12.57
2023-05-06T21:11:01.484Z,13.23
2023-05-06T21:16:03.596Z,13.00
2023-05-06T21:21:05.335Z,13.70
2023-05-06T21:26:07.368Z,14.27
2023-05-06T21:31:09.145Z,13.77
2023-05-06T21:36:10.986Z,14.25
2023-05-06T21:41:14.950Z,14.35
2023-05-06T21:46:16.707Z,14.95
2023-05-06T21:51:18.454Z,14.07
2023-05-06T21:56:20.268Z,17.17
2023-05-06T22:01:22.902Z,19.23
2023-05-06T22:06:24.693Z,18.33
2023-05-06T22:11:26.386Z,16.95
2023-05-06T22:16:31.415Z,16.38
2023-05-06T22:21:33.933Z,16.60
2023-05-06T22:26:35.758Z,15.13
2023-05-06T22:31:37.588Z,16.35
2023-05-06T22:36:41.480Z,16.75
2023-05-06T22:41:45.627Z,17.30
2023-05-06T22:46:51.920Z,17.00
2023-05-06T22:51:53.749Z,15.85
2023-05-06T22:56:55.557Z,17.77
2023-05-06T23:01:57.355Z,16.95
2023-05-06T23:07:01.396Z,17.35
2023-05-06T23:12:06.204Z,18.23
2023-05-06T23:17:10.024Z,18.38
2023-05-06T23:22:11.816Z,16.85
2023-05-06T23:27:13.518Z,17.42
2023-05-06T23:32:15.245Z,17.58
2023-05-06T23:37:17.583Z,17.63
2023-05-06T23:42:22.779Z,17.73
2023-05-06T23:47:24.599Z,16.67
2023-05-06T23:52:26.811Z,17.35
2023-05-06T23:57:34.574Z,17.55
